sensor_id;sensor_type;location;lat;lon;timestamp;temperature;humidity
7822;DHT22;3956;50.558;9.678;2022-12-07T00:06:16;2.00;1.00
7822;DHT22;3956;50.558;9.678;2022-12-07T00:09:12;2.00;1.00
7822;DHT22;3956;50.558;9.678;2022-12-07T00:11:43;2.10;1.00
7822;DHT22;3956;50.558;9.678;2022-12-07T00:14:23;2.00;1.00
7822;DHT22;3956;50.558;9.678;2022-12-07T00:17:00;2.00;1.00
7822;DHT22;3956;50.558;9.678;2022-12-07T00:19:29;2.00;1.00
7822;DHT22;3956;50.558;9.678;2022-12-07T00:22:07;2.00;1.00
7822;DHT22;3956;50.558;9.678;2022-12-07T00:24:38;2.10;1.00
7822;DHT22;3956;50.558;9.678;2022-12-07T00:27:06;2.10;1.00
7822;DHT22;3956;50.558;9.678;2022-12-07T00:29:35;2.10;1.00
7822;DHT22;3956;50.558;9.678;2022-12-07T00:32:04;2.00;1.00
7822;DHT22;3956;50.558;9.678;2022-12-07T00:34:35;2.00;1.00
7822;DHT22;3956;50.558;9.678;2022-12-07T00:37:06;2.00;1.00
7822;DHT22;3956;50.558;9.678;2022-12-07T00:39:37;2.10;1.00
7822;DHT22;3956;50.558;9.678;2022-12-07T00:42:05;2.00;1.00
7822;DHT22;3956;50.558;9.678;2022-12-07T00:44:36;2.00;1.00
7822;DHT22;3956;50.558;9.678;2022-12-07T00:47:05;2.00;1.00
7822;DHT22;3956;50.558;9.678;2022-12-07T00:49:34;2.10;1.00
7822;DHT22;3956;50.558;9.678;2022-12-07T00:52:23;2.10;1.00
7822;DHT22;3956;50.558;9.678;2022-12-07T00:54:55;2.10;1.00
7822;DHT22;3956;50.558;9.678;2022-12-07T00:57:27;2.00;1.00
7822;DHT22;3956;50.558;9.678;2022-12-07T00:59:57;2.00;1.00
7822;DHT22;3956;50.558;9.678;2022-12-07T01:02:27;2.00;1.00
7822;DHT22;3956;50.558;9.678;2022-12-07T01:04:56;1.90;1.00
7822;DHT22;3956;50.558;9.678;2022-12-07T01:07:27;1.90;1.00
7822;DHT22;3956;50.558;9.678;2022-12-07T01:09:55;1.90;1.00
7822;DHT22;3956;50.558;9.678;2022-12-07T01:12:23;1.90;1.00
7822;DHT22;3956;50.558;9.678;2022-12-07T01:14:54;1.90;1.00
7822;DHT22;3956;50.558;9.678;2022-12-07T01:17:22;1.90;1.00
7822;DHT22;3956;50.558;9.678;2022-12-07T01:19:50;1.90;1.00
7822;DHT22;3956;50.558;9.678;2022-12-07T01:22:19;1.80;1.00
7822;DHT22;3956;50.558;9.678;2022-12-07T01:24:49;1.90;1.00
7822;DHT22;3956;50.558;9.678;2022-12-07T01:27:18;1.80;1.00
7822;DHT22;3956;50.558;9.678;2022-12-07T01:29:46;1.80;1.00
7822;DHT22;3956;50.558;9.678;2022-12-07T01:32:15;1.80;1.00
7822;DHT22;3956;50.558;9.678;2022-12-07T01:34:45;1.90;1.00
7822;DHT22;3956;50.558;9.678;2022-12-07T01:37:16;1.90;1.00
7822;DHT22;3956;50.558;9.678;2022-12-07T01:39:50;1.90;1.00
7822;DHT22;3956;50.558;9.678;2022-12-07T01:42:20;2.00;1.00
7822;DHT22;3956;50.558;9.678;2022-12-07T01:47:52;2.00;1.00
7822;DHT22;3956;50.558;9.678;2022-12-07T01:50:25;2.00;1.00
7822;DHT22;3956;50.558;9.678;2022-12-07T01:52:55;2.10;1.00
7822;DHT22;3956;50.558;9.678;2022-12-07T01:55:26;2.10;1.00
7822;DHT22;3956;50.558;9.678;2022-12-07T01:57:55;2.10;1.00
7822;DHT22;3956;50.558;9.678;2022-12-07T02:00:24;2.10;1.00
7822;DHT22;3956;50.558;9.678;2022-12-07T02:02:55;2.10;1.00
7822;DHT22;3956;50.558;9.678;2022-12-07T02:05:28;2.20;1.00
7822;DHT22;3956;50.558;9.678;2022-12-07T02:07:57;2.20;1.00
7822;DHT22;3956;50.558;9.678;2022-12-07T02:10:29;2.20;1.00
7822;DHT22;3956;50.558;9.678;2022-12-07T02:13:00;2.20;1.00
7822;DHT22;3956;50.558;9.678;2022-12-07T02:15:38;2.20;1.00
7822;DHT22;3956;50.558;9.678;2022-12-07T02:18:12;2.30;1.00
7822;DHT22;3956;50.558;9.678;2022-12-07T02:20:50;2.20;1.00
7822;DHT22;3956;50.558;9.678;2022-12-07T02:23:41;2.30;1.00
7822;DHT22;3956;50.558;9.678;2022-12-07T02:29:47;2.40;1.00
7822;DHT22;3956;50.558;9.678;2022-12-07T02:32:22;2.30;1.00
7822;DHT22;3956;50.558;9.678;2022-12-07T02:34:56;2.30;1.00
7822;DHT22;3956;50.558;9.678;2022-12-07T02:37:36;2.20;1.00
7822;DHT22;3956;50.558;9.678;2022-12-07T02:40:12;2.20;1.00
7822;DHT22;3956;50.558;9.678;2022-12-07T02:42:46;2.20;1.00
7822;DHT22;3956;50.558;9.678;2022-12-07T02:45:20;2.30;1.00
7822;DHT22;3956;50.558;9.678;2022-12-07T02:47:53;2.40;1.00
7822;DHT22;3956;50.558;9.678;2022-12-07T02:50:27;2.40;1.00
7822;DHT22;3956;50.558;9.678;2022-12-07T02:52:56;2.40;1.00
7822;DHT22;3956;50.558;9.678;2022-12-07T02:55:31;2.40;1.00
7822;DHT22;3956;50.558;9.678;2022-12-07T02:58:15;2.50;1.00
7822;DHT22;3956;50.558;9.678;2022-12-07T03:01:06;2.50;1.00
7822;DHT22;3956;50.558;9.678;2022-12-07T03:03:40;2.60;1.00
7822;DHT22;3956;50.558;9.678;2022-12-07T03:06:20;2.50;1.00
7822;DHT22;3956;50.558;9.678;2022-12-07T03:08:59;2.60;1.00
7822;DHT22;3956;50.558;9.678;2022-12-07T03:11:41;2.50;1.00
7822;DHT22;3956;50.558;9.678;2022-12-07T03:14:17;2.50;1.00
7822;DHT22;3956;50.558;9.678;2022-12-07T03:16:58;2.50;1.00
7822;DHT22;3956;50.558;9.678;2022-12-07T03:19:32;2.50;1.00
7822;DHT22;3956;50.558;9.678;2022-12-07T03:22:05;2.50;1.00
7822;DHT22;3956;50.558;9.678;2022-12-07T03:24:40;2.50;1.00
7822;DHT22;3956;50.558;9.678;2022-12-07T03:27:15;2.50;1.00
7822;DHT22;3956;50.558;9.678;2022-12-07T03:29:48;2.50;1.00
7822;DHT22;3956;50.558;9.678;2022-12-07T03:32:25;2.60;1.00
7822;DHT22;3956;50.558;9.678;2022-12-07T03:34:58;2.50;1.00
7822;DHT22;3956;50.558;9.678;2022-12-07T03:37:33;2.50;1.00
7822;DHT22;3956;50.558;9.678;2022-12-07T03:40:21;2.60;1.00
7822;DHT22;3956;50.558;9.678;2022-12-07T03:42:53;2.50;1.00
7822;DHT22;3956;50.558;9.678;2022-12-07T03:45:28;2.50;1.00
7822;DHT22;3956;50.558;9.678;2022-12-07T03:48:08;2.50;1.00
7822;DHT22;3956;50.558;9.678;2022-12-07T03:50:43;2.50;1.00
7822;DHT22;3956;50.558;9.678;2022-12-07T03:53:18;2.50;1.00
7822;DHT22;3956;50.558;9.678;2022-12-07T03:55:50;2.50;1.00
7822;DHT22;3956;50.558;9.678;2022-12-07T03:58:21;2.50;1.00
7822;DHT22;3956;50.558;9.678;2022-12-07T04:00:51;2.50;1.00
7822;DHT22;3956;50.558;9.678;2022-12-07T04:03:22;2.50;1.00
7822;DHT22;3956;50.558;9.678;2022-12-07T04:05:51;2.60;1.00
7822;DHT22;3956;50.558;9.678;2022-12-07T04:08:19;2.60;1.00
7822;DHT22;3956;50.558;9.678;2022-12-07T04:10:50;2.60;1.00
7822;DHT22;3956;50.558;9.678;2022-12-07T04:13:19;2.60;1.00
7822;DHT22;3956;50.558;9.678;2022-12-07T04:15:50;2.50;1.00
7822;DHT22;3956;50.558;9.678;2022-12-07T04:18:33;2.60;1.00
7822;DHT22;3956;50.558;9.678;2022-12-07T04:21:17;2.60;1.00
7822;DHT22;3956;50.558;9.678;2022-12-07T04:23:47;2.50;1.00
7822;DHT22;3956;50.558;9.678;2022-12-07T04:26:19;2.60;1.00
7822;DHT22;3956;50.558;9.678;2022-12-07T04:28:51;2.60;1.00
7822;DHT22;3956;50.558;9.678;2022-12-07T04:31:19;2.60;1.00
7822;DHT22;3956;50.558;9.678;2022-12-07T04:33:49;2.60;1.00
7822;DHT22;3956;50.558;9.678;2022-12-07T04:36:19;2.70;1.00
7822;DHT22;3956;50.558;9.678;2022-12-07T04:38:53;2.70;1.00
7822;DHT22;3956;50.558;9.678;2022-12-07T04:41:31;2.70;1.00
7822;DHT22;3956;50.558;9.678;2022-12-07T04:47:49;2.70;1.00
7822;DHT22;3956;50.558;9.678;2022-12-07T04:50:21;2.70;1.00
7822;DHT22;3956;50.558;9.678;2022-12-07T04:52:54;2.70;1.00
7822;DHT22;3956;50.558;9.678;2022-12-07T04:55:25;2.70;1.00
7822;DHT22;3956;50.558;9.678;2022-12-07T04:57:58;2.70;1.00
7822;DHT22;3956;50.558;9.678;2022-12-07T05:00:27;2.80;1.00
7822;DHT22;3956;50.558;9.678;2022-12-07T05:02:57;2.70;1.00
7822;DHT22;3956;50.558;9.678;2022-12-07T05:05:27;2.70;1.00
7822;DHT22;3956;50.558;9.678;2022-12-07T05:07:56;2.80;1.00
7822;DHT22;3956;50.558;9.678;2022-12-07T05:10:26;2.70;1.00
7822;DHT22;3956;50.558;9.678;2022-12-07T05:12:54;2.80;1.00
7822;DHT22;3956;50.558;9.678;2022-12-07T05:15:24;2.80;1.00
7822;DHT22;3956;50.558;9.678;2022-12-07T05:17:54;2.80;1.00
7822;DHT22;3956;50.558;9.678;2022-12-07T05:20:32;2.70;1.00
7822;DHT22;3956;50.558;9.678;2022-12-07T05:23:54;2.70;1.00
7822;DHT22;3956;50.558;9.678;2022-12-07T05:27:16;2.60;1.00
7822;DHT22;3956;50.558;9.678;2022-12-07T05:29:44;2.70;1.00
7822;DHT22;3956;50.558;9.678;2022-12-07T05:32:14;2.60;1.00
7822;DHT22;3956;50.558;9.678;2022-12-07T05:34:42;2.70;1.00
7822;DHT22;3956;50.558;9.678;2022-12-07T05:37:12;2.70;1.00
7822;DHT22;3956;50.558;9.678;2022-12-07T05:39:42;2.80;1.00
7822;DHT22;3956;50.558;9.678;2022-12-07T05:42:13;2.80;1.00
7822;DHT22;3956;50.558;9.678;2022-12-07T05:44:47;2.80;1.00
7822;DHT22;3956;50.558;9.678;2022-12-07T05:47:20;2.90;1.00
7822;DHT22;3956;50.558;9.678;2022-12-07T05:49:49;2.90;1.00
7822;DHT22;3956;50.558;9.678;2022-12-07T05:52:19;2.80;1.00
7822;DHT22;3956;50.558;9.678;2022-12-07T05:54:47;2.80;1.00
7822;DHT22;3956;50.558;9.678;2022-12-07T05:57:19;2.90;1.00
7822;DHT22;3956;50.558;9.678;2022-12-07T06:00:06;2.90;1.00
7822;DHT22;3956;50.558;9.678;2022-12-07T06:03:15;2.90;1.00
7822;DHT22;3956;50.558;9.678;2022-12-07T06:06:16;2.90;1.00
7822;DHT22;3956;50.558;9.678;2022-12-07T06:16:23;2.90;1.00
7822;DHT22;3956;50.558;9.678;2022-12-07T06:19:28;3.00;1.00
7822;DHT22;3956;50.558;9.678;2022-12-07T06:22:08;3.00;1.00
7822;DHT22;3956;50.558;9.678;2022-12-07T06:25:03;3.10;1.00
7822;DHT22;3956;50.558;9.678;2022-12-07T06:27:45;3.10;1.00
7822;DHT22;3956;50.558;9.678;2022-12-07T06:30:19;3.10;1.00
7822;DHT22;3956;50.558;9.678;2022-12-07T06:32:58;3.00;1.00
7822;DHT22;3956;50.558;9.678;2022-12-07T06:35:35;3.00;1.00
7822;DHT22;3956;50.558;9.678;2022-12-07T06:38:33;3.00;1.00
7822;DHT22;3956;50.558;9.678;2022-12-07T06:42:19;3.10;1.00
7822;DHT22;3956;50.558;9.678;2022-12-07T06:45:34;3.20;1.00
7822;DHT22;3956;50.558;9.678;2022-12-07T06:48:45;3.10;1.00
7822;DHT22;3956;50.558;9.678;2022-12-07T06:52:20;3.10;1.00
7822;DHT22;3956;50.558;9.678;2022-12-07T06:55:19;3.20;1.00
7822;DHT22;3956;50.558;9.678;2022-12-07T06:57:49;3.10;1.00
7822;DHT22;3956;50.558;9.678;2022-12-07T07:00:18;3.20;1.00
7822;DHT22;3956;50.558;9.678;2022-12-07T07:02:58;3.20;1.00
7822;DHT22;3956;50.558;9.678;2022-12-07T07:05:37;3.20;1.00
7822;DHT22;3956;50.558;9.678;2022-12-07T07:08:12;3.10;1.00
7822;DHT22;3956;50.558;9.678;2022-12-07T07:10:52;3.10;1.00
7822;DHT22;3956;50.558;9.678;2022-12-07T07:13:22;3.10;1.00
7822;DHT22;3956;50.558;9.678;2022-12-07T07:15:52;3.10;1.00
7822;DHT22;3956;50.558;9.678;2022-12-07T07:18:26;3.10;1.00
7822;DHT22;3956;50.558;9.678;2022-12-07T07:21:09;3.10;1.00
7822;DHT22;3956;50.558;9.678;2022-12-07T07:23:41;3.10;1.00
7822;DHT22;3956;50.558;9.678;2022-12-07T07:26:20;3.10;1.00
7822;DHT22;3956;50.558;9.678;2022-12-07T07:29:39;3.20;1.00
7822;DHT22;3956;50.558;9.678;2022-12-07T07:32:42;3.20;1.00
7822;DHT22;3956;50.558;9.678;2022-12-07T07:35:53;3.10;1.00
7822;DHT22;3956;50.558;9.678;2022-12-07T07:42:17;3.40;1.00
7822;DHT22;3956;50.558;9.678;2022-12-07T07:45:09;3.20;1.00
7822;DHT22;3956;50.558;9.678;2022-12-07T07:48:03;3.30;1.00
7822;DHT22;3956;50.558;9.678;2022-12-07T07:54:15;3.40;1.00
7822;DHT22;3956;50.558;9.678;2022-12-07T07:56:59;3.40;1.00
7822;DHT22;3956;50.558;9.678;2022-12-07T07:59:28;3.40;1.00
7822;DHT22;3956;50.558;9.678;2022-12-07T08:01:57;3.50;1.00
7822;DHT22;3956;50.558;9.678;2022-12-07T08:04:25;3.50;1.00
7822;DHT22;3956;50.558;9.678;2022-12-07T08:06:55;3.60;1.00
7822;DHT22;3956;50.558;9.678;2022-12-07T08:09:25;3.60;1.00
7822;DHT22;3956;50.558;9.678;2022-12-07T08:11:55;3.50;1.00
7822;DHT22;3956;50.558;9.678;2022-12-07T08:14:26;3.50;1.00
7822;DHT22;3956;50.558;9.678;2022-12-07T08:17:08;3.60;1.00
7822;DHT22;3956;50.558;9.678;2022-12-07T08:19:43;3.80;1.00
7822;DHT22;3956;50.558;9.678;2022-12-07T08:22:13;3.70;1.00
7822;DHT22;3956;50.558;9.678;2022-12-07T08:24:42;3.60;1.00
7822;DHT22;3956;50.558;9.678;2022-12-07T08:27:15;3.60;1.00
7822;DHT22;3956;50.558;9.678;2022-12-07T08:29:47;3.50;1.00
7822;DHT22;3956;50.558;9.678;2022-12-07T08:32:22;3.60;1.00
7822;DHT22;3956;50.558;9.678;2022-12-07T08:34:59;3.60;1.00
7822;DHT22;3956;50.558;9.678;2022-12-07T08:37:36;3.60;1.00
7822;DHT22;3956;50.558;9.678;2022-12-07T08:40:17;3.70;1.00
7822;DHT22;3956;50.558;9.678;2022-12-07T08:42:49;3.70;1.00
7822;DHT22;3956;50.558;9.678;2022-12-07T08:45:21;3.60;1.00
7822;DHT22;3956;50.558;9.678;2022-12-07T08:48:02;3.60;1.00
7822;DHT22;3956;50.558;9.678;2022-12-07T08:50:39;3.60;1.00
7822;DHT22;3956;50.558;9.678;2022-12-07T08:53:20;3.60;1.00
7822;DHT22;3956;50.558;9.678;2022-12-07T08:56:39;3.50;1.00
7822;DHT22;3956;50.558;9.678;2022-12-07T09:00:08;3.50;1.00
7822;DHT22;3956;50.558;9.678;2022-12-07T09:02:49;3.50;1.00
7822;DHT22;3956;50.558;9.678;2022-12-07T09:05:25;3.50;1.00
7822;DHT22;3956;50.558;9.678;2022-12-07T09:07:57;3.30;1.00
7822;DHT22;3956;50.558;9.678;2022-12-07T09:10:29;3.40;1.00
7822;DHT22;3956;50.558;9.678;2022-12-07T09:13:09;3.60;1.00
7822;DHT22;3956;50.558;9.678;2022-12-07T09:15:46;3.70;1.00
7822;DHT22;3956;50.558;9.678;2022-12-07T09:18:23;3.80;1.00
7822;DHT22;3956;50.558;9.678;2022-12-07T09:21:02;3.90;1.00
7822;DHT22;3956;50.558;9.678;2022-12-07T09:23:31;3.90;1.00
7822;DHT22;3956;50.558;9.678;2022-12-07T09:26:19;3.80;1.00
7822;DHT22;3956;50.558;9.678;2022-12-07T09:29:16;3.90;1.00
7822;DHT22;3956;50.558;9.678;2022-12-07T09:31:45;3.90;1.00
7822;DHT22;3956;50.558;9.678;2022-12-07T09:34:14;4.00;1.00
7822;DHT22;3956;50.558;9.678;2022-12-07T09:36:47;4.10;1.00
7822;DHT22;3956;50.558;9.678;2022-12-07T09:39:18;4.20;1.00
7822;DHT22;3956;50.558;9.678;2022-12-07T09:41:51;4.40;1.00
7822;DHT22;3956;50.558;9.678;2022-12-07T09:44:40;4.30;1.00
7822;DHT22;3956;50.558;9.678;2022-12-07T09:47:10;4.30;1.00
7822;DHT22;3956;50.558;9.678;2022-12-07T09:49:38;4.30;1.00
7822;DHT22;3956;50.558;9.678;2022-12-07T09:52:40;4.30;1.00
7822;DHT22;3956;50.558;9.678;2022-12-07T09:59:01;4.40;1.00
7822;DHT22;3956;50.558;9.678;2022-12-07T10:02:24;4.60;1.00
7822;DHT22;3956;50.558;9.678;2022-12-07T10:04:55;4.40;1.00
7822;DHT22;3956;50.558;9.678;2022-12-07T10:07:35;4.40;1.00
7822;DHT22;3956;50.558;9.678;2022-12-07T10:10:09;4.40;1.00
7822;DHT22;3956;50.558;9.678;2022-12-07T10:12:54;4.40;1.00
7822;DHT22;3956;50.558;9.678;2022-12-07T10:15:47;4.40;1.00
7822;DHT22;3956;50.558;9.678;2022-12-07T10:21:18;4.40;1.00
7822;DHT22;3956;50.558;9.678;2022-12-07T10:24:03;4.50;1.00
7822;DHT22;3956;50.558;9.678;2022-12-07T10:26:38;4.50;1.00
7822;DHT22;3956;50.558;9.678;2022-12-07T10:29:16;4.50;1.00
7822;DHT22;3956;50.558;9.678;2022-12-07T10:31:54;4.50;1.00
7822;DHT22;3956;50.558;9.678;2022-12-07T10:34:29;4.50;1.00
7822;DHT22;3956;50.558;9.678;2022-12-07T10:37:16;4.50;1.00
7822;DHT22;3956;50.558;9.678;2022-12-07T10:39:55;4.40;1.00
7822;DHT22;3956;50.558;9.678;2022-12-07T10:42:34;4.50;1.00
7822;DHT22;3956;50.558;9.678;2022-12-07T10:46:06;4.50;1.00
7822;DHT22;3956;50.558;9.678;2022-12-07T10:52:13;4.60;1.00
7822;DHT22;3956;50.558;9.678;2022-12-07T10:55:01;4.50;1.00
7822;DHT22;3956;50.558;9.678;2022-12-07T10:57:47;4.60;1.00
7822;DHT22;3956;50.558;9.678;2022-12-07T11:00:22;4.60;1.00
7822;DHT22;3956;50.558;9.678;2022-12-07T11:03:30;4.60;1.00
7822;DHT22;3956;50.558;9.678;2022-12-07T11:06:14;4.60;1.00
7822;DHT22;3956;50.558;9.678;2022-12-07T11:09:38;4.50;1.00
7822;DHT22;3956;50.558;9.678;2022-12-07T11:12:59;4.50;1.00
7822;DHT22;3956;50.558;9.678;2022-12-07T11:16:24;4.50;1.00
7822;DHT22;3956;50.558;9.678;2022-12-07T11:19:24;4.30;1.00
7822;DHT22;3956;50.558;9.678;2022-12-07T11:22:30;4.40;1.00
7822;DHT22;3956;50.558;9.678;2022-12-07T11:25:21;4.40;1.00
7822;DHT22;3956;50.558;9.678;2022-12-07T11:28:17;4.40;1.00
7822;DHT22;3956;50.558;9.678;2022-12-07T11:31:21;4.40;1.00
7822;DHT22;3956;50.558;9.678;2022-12-07T11:34:06;4.50;1.00
7822;DHT22;3956;50.558;9.678;2022-12-07T11:37:29;4.50;1.00
7822;DHT22;3956;50.558;9.678;2022-12-07T11:40:29;4.50;1.00
7822;DHT22;3956;50.558;9.678;2022-12-07T11:43:09;4.50;1.00
7822;DHT22;3956;50.558;9.678;2022-12-07T11:45:44;4.60;1.00
7822;DHT22;3956;50.558;9.678;2022-12-07T11:48:21;4.50;1.00
7822;DHT22;3956;50.558;9.678;2022-12-07T11:50:57;4.50;1.00
7822;DHT22;3956;50.558;9.678;2022-12-07T11:53:36;4.40;1.00
7822;DHT22;3956;50.558;9.678;2022-12-07T11:56:19;4.40;1.00
7822;DHT22;3956;50.558;9.678;2022-12-07T11:59:09;4.40;1.00
7822;DHT22;3956;50.558;9.678;2022-12-07T12:01:56;4.40;1.00
7822;DHT22;3956;50.558;9.678;2022-12-07T12:04:47;4.50;1.00
7822;DHT22;3956;50.558;9.678;2022-12-07T12:07:31;4.50;1.00
7822;DHT22;3956;50.558;9.678;2022-12-07T12:10:51;4.50;1.00
7822;DHT22;3956;50.558;9.678;2022-12-07T12:14:05;4.50;1.00
7822;DHT22;3956;50.558;9.678;2022-12-07T12:21:02;4.40;1.00
7822;DHT22;3956;50.558;9.678;2022-12-07T12:23:41;4.40;1.00
7822;DHT22;3956;50.558;9.678;2022-12-07T12:26:56;4.40;1.00
7822;DHT22;3956;50.558;9.678;2022-12-07T12:29:40;4.40;1.00
7822;DHT22;3956;50.558;9.678;2022-12-07T12:32:19;4.50;1.00
7822;DHT22;3956;50.558;9.678;2022-12-07T12:35:03;4.50;1.00
7822;DHT22;3956;50.558;9.678;2022-12-07T12:37:52;4.50;1.00
7822;DHT22;3956;50.558;9.678;2022-12-07T12:40:52;4.50;1.00
7822;DHT22;3956;50.558;9.678;2022-12-07T12:43:50;4.50;1.00
7822;DHT22;3956;50.558;9.678;2022-12-07T12:46:47;4.60;1.00
7822;DHT22;3956;50.558;9.678;2022-12-07T12:49:36;4.70;1.00
7822;DHT22;3956;50.558;9.678;2022-12-07T12:58:38;4.50;1.00
7822;DHT22;3956;50.558;9.678;2022-12-07T13:01:38;4.50;1.00
7822;DHT22;3956;50.558;9.678;2022-12-07T13:04:53;4.50;1.00
7822;DHT22;3956;50.558;9.678;2022-12-07T13:08:01;4.70;1.00
7822;DHT22;3956;50.558;9.678;2022-12-07T13:11:18;4.70;1.00
7822;DHT22;3956;50.558;9.678;2022-12-07T13:13:50;4.90;1.00
7822;DHT22;3956;50.558;9.678;2022-12-07T13:16:40;4.90;1.00
7822;DHT22;3956;50.558;9.678;2022-12-07T13:22:48;5.10;1.00
7822;DHT22;3956;50.558;9.678;2022-12-07T13:25:30;5.00;1.00
7822;DHT22;3956;50.558;9.678;2022-12-07T13:28:15;4.90;1.00
7822;DHT22;3956;50.558;9.678;2022-12-07T13:34:33;4.90;1.00
7822;DHT22;3956;50.558;9.678;2022-12-07T13:37:34;4.70;1.00
7822;DHT22;3956;50.558;9.678;2022-12-07T13:40:18;4.90;1.00
7822;DHT22;3956;50.558;9.678;2022-12-07T13:43:19;4.90;1.00
7822;DHT22;3956;50.558;9.678;2022-12-07T13:45:57;4.90;1.00
7822;DHT22;3956;50.558;9.678;2022-12-07T13:48:32;4.90;1.00
7822;DHT22;3956;50.558;9.678;2022-12-07T13:51:33;4.90;1.00
7822;DHT22;3956;50.558;9.678;2022-12-07T13:54:15;4.80;1.00
7822;DHT22;3956;50.558;9.678;2022-12-07T13:56:55;4.80;1.00
7822;DHT22;3956;50.558;9.678;2022-12-07T13:59:31;4.90;1.00
7822;DHT22;3956;50.558;9.678;2022-12-07T14:02:01;4.80;1.00
7822;DHT22;3956;50.558;9.678;2022-12-07T14:04:33;4.80;1.00
7822;DHT22;3956;50.558;9.678;2022-12-07T14:07:19;4.80;1.00
7822;DHT22;3956;50.558;9.678;2022-12-07T14:10:29;4.70;1.00
7822;DHT22;3956;50.558;9.678;2022-12-07T14:13:31;4.70;1.00
7822;DHT22;3956;50.558;9.678;2022-12-07T14:16:17;4.60;1.00
7822;DHT22;3956;50.558;9.678;2022-12-07T14:18:50;4.40;1.00
7822;DHT22;3956;50.558;9.678;2022-12-07T14:21:25;4.40;1.00
7822;DHT22;3956;50.558;9.678;2022-12-07T14:24:48;4.30;1.00
7822;DHT22;3956;50.558;9.678;2022-12-07T14:28:04;4.30;1.00
7822;DHT22;3956;50.558;9.678;2022-12-07T14:30:58;4.30;1.00
7822;DHT22;3956;50.558;9.678;2022-12-07T14:33:47;4.30;1.00
7822;DHT22;3956;50.558;9.678;2022-12-07T14:36:26;4.20;1.00
7822;DHT22;3956;50.558;9.678;2022-12-07T14:38:58;4.20;1.00
7822;DHT22;3956;50.558;9.678;2022-12-07T14:41:34;4.10;1.00
7822;DHT22;3956;50.558;9.678;2022-12-07T14:45:15;4.00;1.00
7822;DHT22;3956;50.558;9.678;2022-12-07T14:48:14;3.60;1.00
7822;DHT22;3956;50.558;9.678;2022-12-07T14:51:11;3.40;1.00
7822;DHT22;3956;50.558;9.678;2022-12-07T14:54:04;3.30;1.00
7822;DHT22;3956;50.558;9.678;2022-12-07T14:56:35;3.40;1.00
7822;DHT22;3956;50.558;9.678;2022-12-07T14:59:04;3.50;1.00
7822;DHT22;3956;50.558;9.678;2022-12-07T15:01:34;3.50;1.00
7822;DHT22;3956;50.558;9.678;2022-12-07T15:04:04;3.50;1.00
7822;DHT22;3956;50.558;9.678;2022-12-07T15:06:35;3.40;1.00
7822;DHT22;3956;50.558;9.678;2022-12-07T15:09:11;3.40;1.00
7822;DHT22;3956;50.558;9.678;2022-12-07T15:11:45;3.50;1.00
7822;DHT22;3956;50.558;9.678;2022-12-07T15:14:38;3.40;1.00
7822;DHT22;3956;50.558;9.678;2022-12-07T15:17:44;3.40;1.00
7822;DHT22;3956;50.558;9.678;2022-12-07T15:20:34;3.40;1.00
7822;DHT22;3956;50.558;9.678;2022-12-07T15:23:05;3.30;1.00
7822;DHT22;3956;50.558;9.678;2022-12-07T15:25:36;3.40;1.00
7822;DHT22;3956;50.558;9.678;2022-12-07T15:28:19;3.40;1.00
7822;DHT22;3956;50.558;9.678;2022-12-07T15:31:15;3.40;1.00
7822;DHT22;3956;50.558;9.678;2022-12-07T15:34:10;3.50;1.00
7822;DHT22;3956;50.558;9.678;2022-12-07T15:36:47;3.60;1.00
7822;DHT22;3956;50.558;9.678;2022-12-07T15:39:44;3.60;1.00
7822;DHT22;3956;50.558;9.678;2022-12-07T15:42:43;3.60;1.00
7822;DHT22;3956;50.558;9.678;2022-12-07T15:45:31;3.60;1.00
7822;DHT22;3956;50.558;9.678;2022-12-07T15:48:19;3.60;1.00
7822;DHT22;3956;50.558;9.678;2022-12-07T15:51:31;3.60;1.00
7822;DHT22;3956;50.558;9.678;2022-12-07T15:54:32;3.60;1.00
7822;DHT22;3956;50.558;9.678;2022-12-07T15:57:24;3.60;1.00
7822;DHT22;3956;50.558;9.678;2022-12-07T16:00:23;3.60;1.00
7822;DHT22;3956;50.558;9.678;2022-12-07T16:03:19;3.60;1.00
7822;DHT22;3956;50.558;9.678;2022-12-07T16:06:12;3.50;1.00
7822;DHT22;3956;50.558;9.678;2022-12-07T16:09:18;3.60;1.00
7822;DHT22;3956;50.558;9.678;2022-12-07T16:12:17;3.60;1.00
7822;DHT22;3956;50.558;9.678;2022-12-07T16:14:57;3.50;1.00
7822;DHT22;3956;50.558;9.678;2022-12-07T16:17:59;3.60;1.00
7822;DHT22;3956;50.558;9.678;2022-12-07T16:21:15;3.60;1.00
7822;DHT22;3956;50.558;9.678;2022-12-07T16:24:09;3.60;1.00
7822;DHT22;3956;50.558;9.678;2022-12-07T16:27:00;3.60;1.00
7822;DHT22;3956;50.558;9.678;2022-12-07T16:29:53;3.60;1.00
7822;DHT22;3956;50.558;9.678;2022-12-07T16:32:32;3.60;1.00
7822;DHT22;3956;50.558;9.678;2022-12-07T16:35:07;3.50;1.00
7822;DHT22;3956;50.558;9.678;2022-12-07T16:38:40;3.50;1.00
7822;DHT22;3956;50.558;9.678;2022-12-07T16:41:31;3.50;1.00
7822;DHT22;3956;50.558;9.678;2022-12-07T16:44:21;3.50;1.00
7822;DHT22;3956;50.558;9.678;2022-12-07T16:47:05;3.50;1.00
7822;DHT22;3956;50.558;9.678;2022-12-07T16:49:35;3.50;1.00
7822;DHT22;3956;50.558;9.678;2022-12-07T16:52:19;3.40;1.00
7822;DHT22;3956;50.558;9.678;2022-12-07T16:55:02;3.30;1.00
7822;DHT22;3956;50.558;9.678;2022-12-07T16:57:32;3.30;1.00
7822;DHT22;3956;50.558;9.678;2022-12-07T17:00:19;3.30;1.00
7822;DHT22;3956;50.558;9.678;2022-12-07T17:03:14;3.40;1.00
7822;DHT22;3956;50.558;9.678;2022-12-07T17:05:48;3.30;1.00
7822;DHT22;3956;50.558;9.678;2022-12-07T17:08:17;3.20;1.00
7822;DHT22;3956;50.558;9.678;2022-12-07T17:14:35;3.30;1.00
7822;DHT22;3956;50.558;9.678;2022-12-07T17:17:51;3.40;1.00
7822;DHT22;3956;50.558;9.678;2022-12-07T17:21:20;3.40;1.00
7822;DHT22;3956;50.558;9.678;2022-12-07T17:24:48;3.30;1.00
7822;DHT22;3956;50.558;9.678;2022-12-07T17:27:46;3.30;1.00
7822;DHT22;3956;50.558;9.678;2022-12-07T17:30:19;3.30;1.00
7822;DHT22;3956;50.558;9.678;2022-12-07T17:32:52;3.30;1.00
7822;DHT22;3956;50.558;9.678;2022-12-07T17:35:35;3.30;1.00
7822;DHT22;3956;50.558;9.678;2022-12-07T17:38:30;3.30;1.00
7822;DHT22;3956;50.558;9.678;2022-12-07T17:41:21;3.20;1.00
7822;DHT22;3956;50.558;9.678;2022-12-07T17:44:09;3.20;1.00
7822;DHT22;3956;50.558;9.678;2022-12-07T17:46:53;3.30;1.00
7822;DHT22;3956;50.558;9.678;2022-12-07T17:49:26;3.30;1.00
7822;DHT22;3956;50.558;9.678;2022-12-07T17:52:00;3.30;1.00
7822;DHT22;3956;50.558;9.678;2022-12-07T17:55:05;3.30;1.00
7822;DHT22;3956;50.558;9.678;2022-12-07T17:58:09;3.20;1.00
7822;DHT22;3956;50.558;9.678;2022-12-07T18:01:13;3.20;1.00
7822;DHT22;3956;50.558;9.678;2022-12-07T18:03:52;3.20;1.00
7822;DHT22;3956;50.558;9.678;2022-12-07T18:06:21;3.20;1.00
7822;DHT22;3956;50.558;9.678;2022-12-07T18:08:50;3.20;1.00
7822;DHT22;3956;50.558;9.678;2022-12-07T18:11:20;3.20;1.00
7822;DHT22;3956;50.558;9.678;2022-12-07T18:13:53;3.20;1.00
7822;DHT22;3956;50.558;9.678;2022-12-07T18:16:28;3.20;1.00
7822;DHT22;3956;50.558;9.678;2022-12-07T18:19:42;3.20;1.00
7822;DHT22;3956;50.558;9.678;2022-12-07T18:22:35;3.10;1.00
7822;DHT22;3956;50.558;9.678;2022-12-07T18:25:07;3.10;1.00
7822;DHT22;3956;50.558;9.678;2022-12-07T18:27:37;3.10;1.00
7822;DHT22;3956;50.558;9.678;2022-12-07T18:30:10;3.10;1.00
7822;DHT22;3956;50.558;9.678;2022-12-07T18:32:43;3.10;1.00
7822;DHT22;3956;50.558;9.678;2022-12-07T18:35:17;3.00;1.00
7822;DHT22;3956;50.558;9.678;2022-12-07T18:37:50;3.10;1.00
7822;DHT22;3956;50.558;9.678;2022-12-07T18:40:20;3.10;1.00
7822;DHT22;3956;50.558;9.678;2022-12-07T18:42:51;3.00;1.00
7822;DHT22;3956;50.558;9.678;2022-12-07T18:45:24;3.00;1.00
7822;DHT22;3956;50.558;9.678;2022-12-07T18:47:56;3.00;1.00
7822;DHT22;3956;50.558;9.678;2022-12-07T18:50:28;3.10;1.00
7822;DHT22;3956;50.558;9.678;2022-12-07T18:53:00;3.00;1.00
7822;DHT22;3956;50.558;9.678;2022-12-07T18:55:30;3.10;1.00
7822;DHT22;3956;50.558;9.678;2022-12-07T18:58:03;3.10;1.00
7822;DHT22;3956;50.558;9.678;2022-12-07T19:00:36;3.00;1.00
7822;DHT22;3956;50.558;9.678;2022-12-07T19:03:07;3.00;1.00
7822;DHT22;3956;50.558;9.678;2022-12-07T19:05:36;3.00;1.00
7822;DHT22;3956;50.558;9.678;2022-12-07T19:08:06;3.10;1.00
7822;DHT22;3956;50.558;9.678;2022-12-07T19:10:36;3.10;1.00
7822;DHT22;3956;50.558;9.678;2022-12-07T19:13:06;3.00;1.00
7822;DHT22;3956;50.558;9.678;2022-12-07T19:15:39;3.10;1.00